Time;durP1;ratioP1;P1;durP2;ratioP2;P2;SDS_P1;SDS_P2;PMS_P1;PMS_P2;Temp;Humidity;BMP_temperature;BMP_pressure;BME280_temperature;BME280_humidity;BME280_pressure;Samples;Min_cycle;Max_cycle;Signal;HPM_P1;HPM_P2
2022/10/14 00:02:08;;;;;;;27.27;12.43;;;12.90;99.90;;;;;;5087170;28;20404;-83
2022/10/14 00:04:33;;;;;;;21.85;10.20;;;12.90;99.90;;;;;;5085449;28;20110;-83
2022/10/14 00:06:59;;;;;;;23.85;10.30;;;12.90;99.90;;;;;;5090704;28;20538;-82
2022/10/14 00:09:24;;;;;;;28.10;12.25;;;12.90;99.90;;;;;;5087540;28;20119;-82
2022/10/14 00:11:50;;;;;;;20.02;10.93;;;12.90;99.90;;;;;;5088473;28;20472;-83
2022/10/14 00:14:18;;;;;;;24.00;9.32;;;12.90;99.90;;;;;;5085044;28;20032;-83
2022/10/14 00:16:47;;;;;;;18.23;10.15;;;12.90;99.90;;;;;;5091020;28;20031;-83
2022/10/14 00:19:13;;;;;;;27.20;12.50;;;12.90;99.90;;;;;;5087322;28;20039;-83
2022/10/14 00:21:41;;;;;;;21.05;9.75;;;12.90;99.90;;;;;;5084048;28;20028;-82
2022/10/14 00:24:08;;;;;;;17.88;10.43;;;13.00;99.90;;;;;;5081390;28;20058;-84
2022/10/14 00:26:36;;;;;;;25.95;10.93;;;13.00;99.90;;;;;;5090051;28;20035;-83
2022/10/14 00:29:05;;;;;;;27.27;11.60;;;13.10;99.90;;;;;;5084585;28;20035;-81
2022/10/14 00:31:31;;;;;;;29.20;12.18;;;13.10;99.90;;;;;;5077177;28;20485;-82
2022/10/14 00:33:57;;;;;;;32.03;12.50;;;13.20;99.90;;;;;;5085437;28;20494;-82
2022/10/14 00:36:24;;;;;;;20.58;11.57;;;13.20;99.90;;;;;;5086555;28;20119;-83
2022/10/14 00:38:51;;;;;;;20.95;11.30;;;13.30;99.90;;;;;;5087304;28;20178;-83
2022/10/14 00:41:22;;;;;;;33.40;12.75;;;13.30;99.90;;;;;;5081344;28;20127;-83
2022/10/14 00:44:03;;;;;;;22.90;13.27;;;13.30;99.90;;;;;;5076925;28;20047;-82
2022/10/14 00:46:35;;;;;;;19.15;10.60;;;13.30;99.90;;;;;;5081850;28;20477;-79
2022/10/14 00:49:10;;;;;;;22.15;12.05;;;13.30;99.90;;;;;;5076069;28;20151;-82
2022/10/14 00:51:38;;;;;;;23.42;11.50;;;13.30;99.90;;;;;;5086315;28;20024;-83
2022/10/14 00:54:04;;;;;;;19.35;10.32;;;13.20;99.90;;;;;;5086502;28;20036;-82
2022/10/14 00:56:31;;;;;;;16.05;10.05;;;13.30;99.90;;;;;;5085912;28;20024;-82
2022/10/14 00:58:57;;;;;;;17.77;9.07;;;13.30;99.90;;;;;;5086953;28;20044;-82
2022/10/14 01:01:23;;;;;;;14.32;8.57;;;13.20;99.90;;;;;;5083309;28;20048;-83
2022/10/14 01:03:50;;;;;;;20.42;11.35;;;13.20;99.90;;;;;;5080018;28;20499;-83
2022/10/14 01:06:45;;;;;;;17.02;9.95;;;13.20;99.90;;;;;;5086944;28;20198;-83
2022/10/14 01:09:27;;;;;;;12.98;7.47;;;13.20;99.90;;;;;;5084005;28;20032;-82
2022/10/14 01:12:18;;;;;;;18.15;9.27;;;13.20;99.90;;;;;;5085646;28;20081;-82
2022/10/14 01:14:46;;;;;;;27.33;12.73;;;13.20;99.90;;;;;;5082884;28;20027;-82
2022/10/14 01:17:24;;;;;;;21.55;12.95;;;13.20;99.90;;;;;;5089746;28;20028;-83
2022/10/14 01:20:04;;;;;;;22.38;12.48;;;13.30;99.90;;;;;;5087274;28;20035;-84
2022/10/14 01:23:11;;;;;;;33.47;13.60;;;13.30;99.90;;;;;;5089152;28;20165;-83
2022/10/14 01:26:01;;;;;;;22.52;12.05;;;13.40;99.90;;;;;;5088284;28;20036;-82
2022/10/14 01:28:41;;;;;;;25.90;12.45;;;13.40;99.90;;;;;;5082091;28;20077;-83
2022/10/14 01:31:13;;;;;;;24.40;13.68;;;13.40;99.90;;;;;;5078859;28;20027;-81
2022/10/14 01:33:43;;;;;;;18.60;11.63;;;13.40;99.90;;;;;;5085102;28;20473;-83
2022/10/14 01:36:21;;;;;;;19.55;10.95;;;13.40;99.90;;;;;;5086168;28;20040;-83
2022/10/14 01:39:04;;;;;;;19.75;12.85;;;13.30;99.90;;;;;;5077896;28;20059;-83
2022/10/14 01:41:35;;;;;;;24.60;13.25;;;13.30;99.90;;;;;;5081035;28;20032;-82
2022/10/14 01:44:07;;;;;;;27.55;12.90;;;13.40;99.90;;;;;;5084502;28;20048;-83
2022/10/14 01:46:36;;;;;;;25.88;12.80;;;13.30;99.90;;;;;;5085178;28;20055;-83
2022/10/14 01:49:07;;;;;;;26.48;14.15;;;13.30;99.90;;;;;;5084302;28;20036;-83
2022/10/14 01:51:42;;;;;;;20.23;11.48;;;13.40;99.90;;;;;;5084833;28;20028;-83
2022/10/14 01:54:13;;;;;;;20.90;11.35;;;13.30;99.90;;;;;;5079053;28;20036;-81
2022/10/14 01:56:41;;;;;;;21.63;11.25;;;13.30;99.90;;;;;;5084585;28;20086;-83
2022/10/14 01:59:08;;;;;;;21.05;11.00;;;13.30;99.90;;;;;;5076513;28;20477;-82
2022/10/14 02:01:35;;;;;;;23.38;13.10;;;13.40;99.90;;;;;;5087607;28;20046;-83
2022/10/14 02:04:01;;;;;;;18.70;12.32;;;13.30;99.90;;;;;;5084428;28;20094;-83
2022/10/14 02:06:34;;;;;;;22.73;13.15;;;13.30;99.90;;;;;;5081803;28;20719;-82
2022/10/14 02:09:16;;;;;;;31.50;15.02;;;13.30;99.90;;;;;;5090369;28;20028;-83
2022/10/14 02:12:06;;;;;;;20.65;11.43;;;13.30;99.90;;;;;;5088953;28;20047;-83
2022/10/14 02:14:47;;;;;;;14.93;10.75;;;13.30;99.90;;;;;;5085468;28;20032;-82
2022/10/14 02:17:37;;;;;;;14.85;10.48;;;13.30;99.90;;;;;;5090323;28;20093;-83
2022/10/14 02:20:22;;;;;;;27.23;13.07;;;13.30;99.90;;;;;;5091800;28;20473;-83
2022/10/14 02:22:53;;;;;;;17.45;10.32;;;13.20;99.90;;;;;;5088836;28;20048;-81
2022/10/14 02:25:28;;;;;;;15.38;9.57;;;13.30;99.90;;;;;;5087885;28;20085;-82
2022/10/14 02:27:56;;;;;;;16.58;9.75;;;13.20;99.90;;;;;;5087127;28;20024;-83
2022/10/14 02:30:22;;;;;;;15.48;8.60;;;13.20;99.90;;;;;;5091069;28;20081;-82
2022/10/14 02:32:50;;;;;;;14.30;9.10;;;13.20;99.90;;;;;;5088690;28;20032;-82
2022/10/14 02:35:18;;;;;;;15.05;9.00;;;13.20;99.90;;;;;;5091102;28;20107;-83
2022/10/14 02:37:46;;;;;;;18.73;11.48;;;13.20;99.90;;;;;;5089416;28;20032;-83
2022/10/14 02:40:25;;;;;;;17.35;10.30;;;13.20;99.90;;;;;;5088305;28;20051;-82
2022/10/14 02:42:50;;;;;;;17.70;8.18;;;13.10;99.90;;;;;;5076806;28;20036;-81
2022/10/14 02:45:17;;;;;;;13.60;9.02;;;13.10;99.90;;;;;;5088737;28;20040;-82
2022/10/14 02:47:42;;;;;;;14.38;9.73;;;13.10;99.90;;;;;;5085321;28;20040;-82
2022/10/14 02:50:08;;;;;;;15.60;7.30;;;13.10;99.90;;;;;;5086047;28;20465;-82
2022/10/14 02:52:34;;;;;;;10.63;7.65;;;13.00;99.90;;;;;;5091710;28;20556;-83
2022/10/14 02:54:59;;;;;;;17.20;10.40;;;13.00;99.90;;;;;;5083971;28;20154;-83
2022/10/14 02:57:25;;;;;;;18.27;9.48;;;13.00;99.90;;;;;;5090053;28;20508;-83
2022/10/14 02:59:51;;;;;;;16.85;9.07;;;13.00;99.90;;;;;;5088817;28;20028;-81
2022/10/14 03:02:16;;;;;;;20.42;10.77;;;13.00;99.90;;;;;;5084910;28;20178;-82
2022/10/14 03:04:42;;;;;;;29.60;13.43;;;13.00;99.90;;;;;;5089946;28;20024;-83
2022/10/14 03:07:07;;;;;;;25.23;12.52;;;12.90;99.90;;;;;;5087072;28;20577;-82
2022/10/14 03:09:33;;;;;;;18.08;11.23;;;12.90;99.90;;;;;;5091009;28;20392;-83
2022/10/14 03:11:58;;;;;;;16.08;10.25;;;13.00;99.90;;;;;;5092107;28;20020;-83
2022/10/14 03:14:24;;;;;;;25.30;13.07;;;12.90;99.90;;;;;;5086500;28;20035;-83
2022/10/14 03:16:50;;;;;;;19.52;12.30;;;12.90;99.90;;;;;;5092222;28;20028;-83
2022/10/14 03:19:15;;;;;;;35.00;18.25;;;12.90;99.90;;;;;;5087936;28;20028;-82
2022/10/14 03:21:41;;;;;;;26.92;15.60;;;13.00;99.90;;;;;;5091827;28;20127;-82
2022/10/14 03:24:08;;;;;;;31.65;16.25;;;13.00;99.90;;;;;;5085524;28;20043;-81
2022/10/14 03:26:34;;;;;;;39.30;17.92;;;13.10;99.90;;;;;;5090914;28;20039;-82
2022/10/14 03:28:59;;;;;;;35.83;20.42;;;13.10;99.90;;;;;;5095804;28;20031;-81
2022/10/14 03:31:25;;;;;;;30.40;19.55;;;13.10;99.90;;;;;;5090850;28;20067;-82
2022/10/14 03:34:27;;;;;;;34.85;19.17;;;13.10;99.90;;;;;;5097375;28;20036;-81
2022/10/14 03:37:32;;;;;;;32.00;20.55;;;13.20;99.90;;;;;;5083530;28;20044;-83
2022/10/14 03:40:19;;;;;;;40.83;20.13;;;13.20;99.90;;;;;;5086286;28;20093;-83
2022/10/14 03:43:35;;;;;;;;;;;;;;;;;;;;;
2022/10/14 03:46:31;;;;;;;33.67;19.45;;;13.10;99.90;;;;;;5034716;28;20037;-80
2022/10/14 03:49:17;;;;;;;41.28;21.80;;;13.20;99.90;;;;;;5081471;28;20443;-83
2022/10/14 03:51:51;;;;;;;;;;;13.20;99.90;;;;;;5090219;28;20028;-81
2022/10/14 03:54:57;;;;;;;43.10;22.58;;;13.10;99.90;;;;;;5082198;28;20006;-82
2022/10/14 03:57:26;;;;;;;46.72;22.77;;;13.10;99.90;;;;;;5084911;28;20072;-81
2022/10/14 04:00:16;;;;;;;;;;;;;;;;;;;;;
2022/10/14 04:03:03;;;;;;;46.65;23.35;;;13.20;99.90;;;;;;5089562;28;20496;-84
2022/10/14 04:06:14;;;;;;;44.88;23.65;;;13.20;99.90;;;;;;5106302;27;20035;-82
2022/10/14 04:08:40;;;;;;;36.55;20.65;;;13.20;99.90;;;;;;5080397;28;20052;-81
2022/10/14 04:11:08;;;;;;;45.20;23.58;;;13.10;99.90;;;;;;5085385;28;20101;-81
2022/10/14 04:13:46;;;;;;;38.63;23.73;;;13.10;99.90;;;;;;5085357;28;20031;-79
2022/10/14 04:16:27;;;;;;;43.28;23.40;;;13.10;99.90;;;;;;5089276;28;20064;-79
2022/10/14 04:18:53;;;;;;;44.28;24.02;;;13.20;99.90;;;;;;5087538;28;20497;-80
2022/10/14 04:21:37;;;;;;;50.10;23.83;;;13.20;99.90;;;;;;5082786;28;20017;-84
2022/10/14 04:24:16;;;;;;;41.60;23.45;;;13.20;99.90;;;;;;5075874;28;20048;-81
2022/10/14 04:27:17;;;;;;;51.35;25.05;;;13.10;99.90;;;;;;5085353;28;20028;-81
2022/10/14 04:29:56;;;;;;;50.90;24.80;;;13.10;99.90;;;;;;5077293;28;20454;-82
2022/10/14 04:39:06;;;;;;;40.58;22.38;;;13.10;99.90;;;;;;5073247;28;20055;-81
2022/10/14 04:41:31;;;;;;;45.92;25.95;;;13.10;99.90;;;;;;5084869;28;20895;-81
2022/10/14 04:43:57;;;;;;;54.08;25.75;;;13.10;99.90;;;;;;5087124;28;20048;-84
2022/10/14 04:46:23;;;;;;;48.45;26.08;;;13.10;99.90;;;;;;5081048;28;20028;-81
2022/10/14 04:48:49;;;;;;;51.83;26.83;;;13.10;99.90;;;;;;5085508;28;20476;-83
2022/10/14 04:51:15;;;;;;;51.05;28.73;;;13.10;99.90;;;;;;5081690;28;20066;-83
2022/10/14 04:53:41;;;;;;;47.05;28.25;;;13.00;99.90;;;;;;5089099;28;20074;-83
2022/10/14 04:56:06;;;;;;;46.38;25.60;;;13.10;99.90;;;;;;5091290;28;20032;-83
2022/10/14 04:58:32;;;;;;;45.67;26.27;;;13.10;99.90;;;;;;5090811;28;20040;-82
2022/10/14 05:00:58;;;;;;;45.13;25.58;;;13.10;99.90;;;;;;5090880;28;20407;-82
2022/10/14 05:03:23;;;;;;;49.03;27.58;;;13.10;99.90;;;;;;5090355;28;20988;-82
2022/10/14 05:05:52;;;;;;;42.58;24.30;;;13.00;99.90;;;;;;5091596;28;20028;-84
2022/10/14 05:08:17;;;;;;;44.97;26.30;;;13.00;99.90;;;;;;5090351;28;20127;-82
2022/10/14 05:10:43;;;;;;;39.92;22.75;;;13.00;99.90;;;;;;5091212;28;20114;-83
2022/10/14 05:13:09;;;;;;;38.50;21.95;;;13.00;99.90;;;;;;5090141;28;20027;-83
2022/10/14 05:15:34;;;;;;;36.97;24.05;;;12.90;99.90;;;;;;5091119;28;20031;-82
2022/10/14 05:18:00;;;;;;;35.67;22.15;;;12.90;99.90;;;;;;5090831;28;20020;-82
2022/10/14 05:20:26;;;;;;;45.70;24.70;;;12.90;99.90;;;;;;5090045;28;20081;-82
2022/10/14 05:22:51;;;;;;;54.53;27.50;;;12.90;99.90;;;;;;5090989;28;20036;-82
2022/10/14 05:25:17;;;;;;;40.33;24.65;;;12.90;99.90;;;;;;5090223;28;20032;-83
2022/10/14 05:27:43;;;;;;;45.15;24.20;;;12.90;99.90;;;;;;5090830;28;20047;-83
2022/10/14 05:30:09;;;;;;;37.83;21.38;;;12.90;99.90;;;;;;5089825;28;20426;-83
2022/10/14 05:32:35;;;;;;;42.30;23.45;;;13.00;99.90;;;;;;5091240;28;20028;-82
2022/10/14 05:35:00;;;;;;;46.95;26.27;;;12.90;99.90;;;;;;5088752;28;20024;-83
2022/10/14 05:37:26;;;;;;;38.42;21.70;;;12.90;99.90;;;;;;5090719;28;20153;-83
2022/10/14 05:39:51;;;;;;;37.70;23.33;;;13.00;99.90;;;;;;5090127;28;20439;-83
2022/10/14 05:42:17;;;;;;;41.15;23.48;;;12.90;99.90;;;;;;5091929;28;20024;-83
2022/10/14 05:44:42;;;;;;;51.25;24.80;;;12.90;99.90;;;;;;5094460;28;20031;-83
2022/10/14 05:47:09;;;;;;;45.38;25.85;;;13.00;99.90;;;;;;5094877;28;20028;-83
2022/10/14 05:49:35;;;;;;;44.40;25.15;;;13.10;99.90;;;;;;5094247;28;20063;-82
2022/10/14 05:52:00;;;;;;;45.28;24.02;;;13.10;99.90;;;;;;5094831;28;20070;-82
2022/10/14 05:54:26;;;;;;;39.97;23.77;;;13.10;99.90;;;;;;5093829;28;20027;-82
2022/10/14 05:56:52;;;;;;;43.00;22.58;;;13.10;99.90;;;;;;5094912;28;20473;-81
2022/10/14 05:59:17;;;;;;;40.83;22.55;;;13.10;99.90;;;;;;5094021;28;20032;-82
2022/10/14 06:01:43;;;;;;;39.50;22.17;;;13.10;99.90;;;;;;5092707;28;20074;-83
2022/10/14 06:04:16;;;;;;;33.40;21.55;;;13.10;99.90;;;;;;5093689;28;20495;-82
2022/10/14 06:06:42;;;;;;;30.90;21.25;;;13.20;99.90;;;;;;5094707;28;20550;-81
2022/10/14 06:09:07;;;;;;;37.78;21.52;;;13.20;99.90;;;;;;5093985;28;20028;-83
2022/10/14 06:11:33;;;;;;;35.38;20.50;;;13.30;99.90;;;;;;5094809;28;20055;-82
2022/10/14 06:13:58;;;;;;;33.80;22.50;;;13.20;99.90;;;;;;5093815;28;20400;-82
2022/10/14 06:16:24;;;;;;;42.95;22.00;;;13.30;99.90;;;;;;5094422;28;20028;-82
2022/10/14 06:18:50;;;;;;;44.33;22.55;;;13.30;99.90;;;;;;5093998;28;20039;-82
2022/10/14 06:21:15;;;;;;;40.88;23.25;;;13.30;99.90;;;;;;5094490;28;20023;-83
2022/10/14 06:23:41;;;;;;;41.38;22.17;;;13.30;99.90;;;;;;5093868;28;20063;-82
2022/10/14 06:26:08;;;;;;;44.25;23.08;;;13.30;99.90;;;;;;5094259;28;20020;-82
2022/10/14 06:28:34;;;;;;;48.13;24.50;;;13.30;99.90;;;;;;5094002;28;20035;-83
2022/10/14 06:31:00;;;;;;;47.45;26.42;;;13.30;99.90;;;;;;5094380;28;20376;-82
2022/10/14 06:33:27;;;;;;;38.90;23.55;;;13.30;99.90;;;;;;5093399;28;20315;-82
2022/10/14 06:35:53;;;;;;;49.78;25.33;;;13.30;99.90;;;;;;5094072;28;20453;-81
2022/10/14 06:38:18;;;;;;;43.17;24.98;;;13.30;99.90;;;;;;5094153;28;20070;-82
2022/10/14 06:40:44;;;;;;;58.40;28.80;;;13.20;99.90;;;;;;5093588;28;20028;-82
2022/10/14 06:43:09;;;;;;;52.80;25.85;;;13.30;99.90;;;;;;5094009;28;20062;-83
2022/10/14 06:45:35;;;;;;;51.10;25.75;;;13.20;99.90;;;;;;5093507;28;20396;-83
2022/10/14 06:48:00;;;;;;;42.30;24.90;;;13.20;99.90;;;;;;5094028;28;20427;-82
2022/10/14 06:50:26;;;;;;;49.85;29.00;;;13.20;99.90;;;;;;5093244;28;20059;-83
2022/10/14 06:52:52;;;;;;;48.55;28.60;;;13.20;99.90;;;;;;5093920;28;20028;-82
2022/10/14 06:55:17;;;;;;;46.00;24.65;;;13.20;99.90;;;;;;5093085;28;20028;-82
2022/10/14 06:57:43;;;;;;;58.45;30.77;;;13.20;99.90;;;;;;5093799;28;20035;-82
2022/10/14 07:00:09;;;;;;;50.08;28.08;;;13.10;99.90;;;;;;5092965;28;20057;-83
2022/10/14 07:02:37;;;;;;;52.53;27.40;;;13.10;99.90;;;;;;5093662;28;20052;-82
2022/10/14 07:05:02;;;;;;;55.35;28.17;;;13.10;99.90;;;;;;5093148;28;20362;-82
2022/10/14 07:07:29;;;;;;;49.58;28.00;;;13.10;99.90;;;;;;5093565;28;20514;-83
2022/10/14 07:09:56;;;;;;;55.90;30.45;;;13.10;99.90;;;;;;5092749;28;20028;-82
2022/10/14 07:12:22;;;;;;;55.40;29.35;;;13.10;99.90;;;;;;5093476;28;20040;-81
2022/10/14 07:14:48;;;;;;;48.92;27.08;;;13.20;99.90;;;;;;5092913;28;20024;-82
2022/10/14 07:17:13;;;;;;;55.35;28.83;;;13.20;99.90;;;;;;5093296;28;20031;-82
2022/10/14 07:19:39;;;;;;;63.75;31.17;;;13.20;99.90;;;;;;5092726;28;20476;-82
2022/10/14 07:22:05;;;;;;;50.42;29.50;;;13.20;99.90;;;;;;5093402;28;20042;-82
2022/10/14 07:24:30;;;;;;;58.22;30.30;;;13.10;99.90;;;;;;5092399;28;20412;-82
2022/10/14 07:26:56;;;;;;;59.75;30.98;;;13.20;99.90;;;;;;5093299;28;20028;-82
2022/10/14 07:29:21;;;;;;;45.22;26.08;;;13.20;99.90;;;;;;5089990;28;20032;-82
2022/10/14 07:31:47;;;;;;;48.30;27.50;;;13.20;99.90;;;;;;5090760;28;20804;-82
2022/10/14 07:34:13;;;;;;;56.03;29.67;;;13.20;99.90;;;;;;5089641;28;20466;-82
2022/10/14 07:36:38;;;;;;;50.17;26.33;;;13.30;99.90;;;;;;5092630;28;20034;-82
2022/10/14 07:39:04;;;;;;;48.75;25.70;;;13.30;99.90;;;;;;5092222;28;20035;-82
2022/10/14 07:41:30;;;;;;;37.35;21.40;;;13.40;99.90;;;;;;5092622;28;20020;-82
2022/10/14 07:44:04;;;;;;;37.55;20.13;;;13.40;99.90;;;;;;5091982;28;20054;-82
2022/10/14 07:46:33;;;;;;;36.08;21.02;;;13.40;99.90;;;;;;5090801;28;20038;-82
2022/10/14 07:49:05;;;;;;;34.63;22.15;;;13.40;99.90;;;;;;5087321;28;20358;-82
2022/10/14 07:51:31;;;;;;;29.00;19.98;;;13.50;99.90;;;;;;5081401;28;20029;-82
2022/10/14 07:53:58;;;;;;;31.38;19.73;;;13.50;99.90;;;;;;5085911;28;20035;-82
2022/10/14 07:56:25;;;;;;;28.33;18.13;;;13.50;99.90;;;;;;5081538;28;20039;-82
2022/10/14 07:58:51;;;;;;;28.98;16.35;;;13.70;99.90;;;;;;5091420;28;20028;-82
2022/10/14 08:01:17;;;;;;;30.25;17.30;;;13.70;99.90;;;;;;5092588;28;20056;-82
2022/10/14 08:03:43;;;;;;;25.35;17.08;;;13.80;99.90;;;;;;5091690;28;20028;-82
2022/10/14 08:06:09;;;;;;;26.00;15.82;;;13.80;99.90;;;;;;5091717;28;20078;-83
2022/10/14 08:08:35;;;;;;;25.92;16.58;;;13.80;99.90;;;;;;5092684;28;20024;-82
2022/10/14 08:11:01;;;;;;;21.63;14.90;;;13.80;99.90;;;;;;5091732;28;20070;-83
2022/10/14 08:13:28;;;;;;;22.95;13.35;;;13.70;99.90;;;;;;5092269;28;20031;-83
2022/10/14 08:15:53;;;;;;;22.02;14.57;;;13.80;99.90;;;;;;5091632;28;20024;-82
2022/10/14 08:18:19;;;;;;;19.17;12.77;;;13.80;99.90;;;;;;5092260;28;20024;-82
2022/10/14 08:20:44;;;;;;;20.13;12.55;;;13.80;99.90;;;;;;5091654;28;20031;-83
2022/10/14 08:23:11;;;;;;;19.02;12.80;;;13.80;99.90;;;;;;5091955;28;20503;-83
2022/10/14 08:25:38;;;;;;;16.05;11.43;;;13.80;99.90;;;;;;5091451;28;20042;-82
2022/10/14 08:28:04;;;;;;;17.42;12.05;;;13.80;99.90;;;;;;5092248;28;20028;-83
2022/10/14 08:30:29;;;;;;;17.35;11.43;;;13.80;99.90;;;;;;5091009;28;20038;-83
2022/10/14 08:32:55;;;;;;;19.05;11.45;;;13.90;99.90;;;;;;5092200;28;20069;-83
2022/10/14 08:35:21;;;;;;;19.45;12.85;;;13.90;99.90;;;;;;5091079;28;20031;-82
2022/10/14 08:38:00;;;;;;;18.48;11.63;;;14.00;99.90;;;;;;5092069;28;20020;-82
2022/10/14 08:40:28;;;;;;;19.15;11.50;;;14.00;99.90;;;;;;5082893;28;20024;-82
2022/10/14 08:43:13;;;;;;;15.32;10.35;;;14.10;99.90;;;;;;5091767;28;20062;-82
2022/10/14 08:45:48;;;;;;;17.40;10.70;;;14.20;99.90;;;;;;5091013;28;20123;-82
2022/10/14 08:48:21;;;;;;;17.42;11.23;;;14.30;99.90;;;;;;5080566;28;20270;-82
2022/10/14 08:51:03;;;;;;;18.95;10.38;;;14.40;99.90;;;;;;5082092;28;20109;-82
2022/10/14 08:53:35;;;;;;;14.95;9.13;;;14.60;99.90;;;;;;5091515;28;20036;-83
2022/10/14 08:56:01;;;;;;;15.70;8.73;;;14.70;99.90;;;;;;5090974;28;20107;-83
2022/10/14 08:58:47;;;;;;;13.02;8.70;;;14.80;99.90;;;;;;5088204;28;20070;-83
2022/10/14 09:01:27;;;;;;;;;;;14.90;99.90;;;;;;5086755;28;20492;-83
2022/10/14 09:04:00;;;;;;;11.93;5.43;;;15.00;99.90;;;;;;5091248;28;20409;-80
2022/10/14 09:06:34;;;;;;;6.78;5.10;;;15.00;99.90;;;;;;5091301;28;20059;-83
2022/10/14 09:09:34;;;;;;;8.35;5.10;;;15.10;99.90;;;;;;5090930;28;20032;-83
2022/10/14 09:12:04;;;;;;;7.07;5.50;;;15.10;99.90;;;;;;5047384;28;20116;-83
2022/10/14 09:14:37;;;;;;;5.70;3.92;;;15.20;99.90;;;;;;5090380;28;20055;-83
2022/10/14 09:17:13;;;;;;;6.40;3.85;;;15.20;99.90;;;;;;5090763;28;20039;-83
2022/10/14 09:19:49;;;;;;;10.57;4.38;;;15.30;99.90;;;;;;5089260;28;20032;-84
2022/10/14 09:22:15;;;;;;;8.65;5.10;;;15.30;99.90;;;;;;5087485;28;20039;-83
2022/10/14 09:24:44;;;;;;;13.65;4.97;;;15.30;99.90;;;;;;5090496;28;20035;-83
2022/10/14 09:27:21;;;;;;;7.00;3.80;;;15.20;99.90;;;;;;5090499;28;20019;-81
2022/10/14 09:29:50;;;;;;;8.73;3.97;;;15.20;99.90;;;;;;5087710;28;20381;-83
2022/10/14 09:32:34;;;;;;;5.38;3.83;;;15.30;99.90;;;;;;5088969;28;20109;-82
2022/10/14 09:35:01;;;;;;;6.65;3.80;;;15.20;99.90;;;;;;5081374;28;20108;-84
2022/10/14 09:37:35;;;;;;;7.05;3.70;;;15.20;99.90;;;;;;5086479;28;21073;-82
2022/10/14 09:40:29;;;;;;;4.68;2.90;;;15.30;99.90;;;;;;5088407;28;20024;-82
2022/10/14 09:43:06;;;;;;;6.20;3.05;;;15.30;99.90;;;;;;5090704;28;20043;-82
2022/10/14 09:45:55;;;;;;;5.90;3.17;;;15.40;99.90;;;;;;5089794;28;20028;-83
2022/10/14 09:48:24;;;;;;;6.30;2.95;;;15.40;99.90;;;;;;5085605;28;20024;-83
2022/10/14 09:50:53;;;;;;;3.65;2.90;;;15.40;99.90;;;;;;5089861;28;20024;-83
2022/10/14 09:53:44;;;;;;;8.25;2.88;;;15.40;99.90;;;;;;5090706;28;20111;-82
2022/10/14 09:56:10;;;;;;;4.05;2.58;;;15.50;99.90;;;;;;5090284;28;20146;-83
2022/10/14 09:58:46;;;;;;;5.25;2.30;;;15.60;99.90;;;;;;5090790;28;20443;-83
2022/10/14 10:01:20;;;;;;;5.35;2.50;;;15.60;99.90;;;;;;5089563;28;20044;-83
2022/10/14 10:03:47;;;;;;;4.22;2.85;;;15.60;99.90;;;;;;5075887;28;20056;-83
2022/10/14 10:06:20;;;;;;;7.80;3.10;;;15.70;99.90;;;;;;5089692;28;20052;-83
2022/10/14 10:08:51;;;;;;;3.03;2.50;;;15.70;99.90;;;;;;5083945;28;20036;-83
2022/10/14 10:11:27;;;;;;;2.35;2.10;;;15.80;99.90;;;;;;5089166;28;20025;-84
2022/10/14 10:13:53;;;;;;;5.45;3.45;;;15.80;99.90;;;;;;5082959;28;20032;-82
2022/10/14 10:16:31;;;;;;;3.88;3.00;;;15.80;99.90;;;;;;5089997;28;20064;-83
2022/10/14 10:19:17;;;;;;;7.55;3.30;;;15.80;99.90;;;;;;5090692;28;20035;-83
2022/10/14 10:21:43;;;;;;;8.57;3.33;;;15.80;99.90;;;;;;5090465;28;20048;-82
2022/10/14 10:24:20;;;;;;;12.93;3.92;;;15.90;99.90;;;;;;5090522;28;20043;-90
2022/10/14 10:26:46;;;;;;;3.95;2.95;;;16.00;99.90;;;;;;5090728;28;20036;-82
2022/10/14 10:29:24;;;;;;;4.50;2.88;;;16.20;99.90;;;;;;5092507;28;20098;-80
2022/10/14 10:32:16;;;;;;;10.40;3.40;;;16.30;99.90;;;;;;5094147;28;20028;-82
2022/10/14 10:34:59;;;;;;;13.27;3.17;;;16.30;99.90;;;;;;5085059;28;20334;-82
2022/10/14 10:37:50;;;;;;;12.63;3.95;;;16.40;99.90;;;;;;5085433;28;20024;-87
2022/10/14 10:40:15;;;;;;;3.05;2.58;;;16.40;99.90;;;;;;5076104;28;20042;-82
2022/10/14 10:43:01;;;;;;;3.03;2.72;;;16.30;99.90;;;;;;5087733;28;20036;-83
2022/10/14 10:45:40;;;;;;;9.70;2.92;;;16.30;99.90;;;;;;5059720;28;20113;-83
2022/10/14 10:48:20;;;;;;;3.88;2.55;;;16.30;99.90;;;;;;5084796;28;20039;-83
2022/10/14 10:50:56;;;;;;;1.98;1.80;;;16.40;99.90;;;;;;5093347;28;20024;-83
2022/10/14 10:53:21;;;;;;;4.20;2.45;;;16.40;99.90;;;;;;5093858;28;20077;-82
2022/10/14 10:56:08;;;;;;;4.28;2.60;;;16.50;99.90;;;;;;5093345;28;20429;-83
2022/10/14 10:58:44;;;;;;;4.13;2.95;;;16.50;99.90;;;;;;5087052;28;20039;-83
2022/10/14 11:01:20;;;;;;;4.53;2.67;;;16.60;99.90;;;;;;5092903;28;20047;-83
2022/10/14 11:04:00;;;;;;;6.72;2.88;;;16.50;99.90;;;;;;5093174;28;20036;-84
2022/10/14 11:12:16;;;;;;;5.82;2.13;;;16.50;99.90;;;;;;5087973;28;20051;-83
2022/10/14 11:14:47;;;;;;;3.38;2.53;;;16.50;99.90;;;;;;5083411;28;20028;-82
2022/10/14 11:17:27;;;;;;;5.22;2.72;;;16.60;99.90;;;;;;5088879;28;20029;-82
2022/10/14 11:20:07;;;;;;;7.20;2.58;;;16.80;99.90;;;;;;5087786;28;20484;-84
2022/10/14 11:23:03;;;;;;;9.85;2.55;;;16.80;99.90;;;;;;5092738;28;20036;-84
2022/10/14 11:25:48;;;;;;;4.53;2.13;;;16.70;99.90;;;;;;5080108;28;20089;-81
2022/10/14 11:28:40;;;;;;;5.72;3.40;;;16.60;99.90;;;;;;5090673;28;20106;-83
2022/10/14 11:31:32;;;;;;;7.70;2.92;;;16.50;99.90;;;;;;5084094;28;20039;-83
2022/10/14 11:34:09;;;;;;;4.25;2.85;;;16.40;99.90;;;;;;5061960;28;20376;-81
2022/10/14 11:36:55;;;;;;;10.85;3.25;;;16.40;99.90;;;;;;5075514;28;20054;-81
2022/10/14 11:39:48;;;;;;;7.10;2.60;;;16.40;99.90;;;;;;5088990;28;20032;-82
2022/10/14 11:42:52;;;;;;;5.80;2.17;;;16.50;99.90;;;;;;5087204;28;20067;-83
2022/10/14 11:45:30;;;;;;;4.10;2.30;;;16.50;99.90;;;;;;5086558;28;20481;-83
2022/10/14 11:48:21;;;;;;;2.80;2.53;;;16.40;99.90;;;;;;5091658;28;20028;-83
2022/10/14 11:50:53;;;;;;;3.47;2.10;;;16.50;99.90;;;;;;5077619;28;20092;-83
2022/10/14 11:53:26;;;;;;;2.85;2.05;;;16.40;99.90;;;;;;5084099;28;20048;-83
2022/10/14 11:56:02;;;;;;;4.88;2.25;;;16.40;99.90;;;;;;5084310;28;20047;-82
2022/10/14 11:58:31;;;;;;;4.93;2.33;;;16.50;99.90;;;;;;5087751;28;20114;-83
2022/10/14 12:00:59;;;;;;;3.42;2.10;;;16.60;99.90;;;;;;5081417;28;20485;-83
2022/10/14 12:04:03;;;;;;;6.75;2.53;;;16.60;99.90;;;;;;5077511;28;20035;-84
2022/10/14 12:06:36;;;;;;;9.25;1.90;;;16.60;99.90;;;;;;5079107;28;20405;-84
2022/10/14 12:09:23;;;;;;;4.82;2.33;;;16.70;99.90;;;;;;5089743;28;20094;-82
2022/10/14 12:11:57;;;;;;;6.03;2.00;;;16.70;99.90;;;;;;5071560;28;20524;-83
2022/10/14 12:14:57;;;;;;;1.95;1.67;;;16.70;99.90;;;;;;5074140;28;20042;-83
2022/10/14 12:17:26;;;;;;;6.07;1.83;;;16.80;99.90;;;;;;5078005;28;20396;-83
2022/10/14 12:19:52;;;;;;;2.05;1.83;;;16.80;99.90;;;;;;5077816;28;20538;-83
2022/10/14 12:22:22;;;;;;;2.42;2.08;;;16.90;99.90;;;;;;5082308;28;20040;-83
2022/10/14 12:24:51;;;;;;;3.00;1.77;;;16.80;99.90;;;;;;5080340;28;20109;-86
2022/10/14 12:27:18;;;;;;;6.65;1.65;;;17.00;99.90;;;;;;5080641;28;20115;-83
2022/10/14 12:29:50;;;;;;;1.60;1.50;;;16.90;99.90;;;;;;5077294;28;20510;-80
2022/10/14 12:32:20;;;;;;;1.60;1.50;;;17.00;99.90;;;;;;5083211;28;20025;-82
2022/10/14 12:34:52;;;;;;;3.53;1.55;;;17.00;99.90;;;;;;5081451;28;20033;-83
2022/10/14 12:37:24;;;;;;;2.08;1.60;;;17.00;99.90;;;;;;5087190;28;20036;-82
2022/10/14 12:40:02;;;;;;;2.38;1.55;;;17.00;99.90;;;;;;5086251;28;20137;-83
2022/10/14 12:42:35;;;;;;;3.97;1.55;;;17.10;99.90;;;;;;5088531;28;20110;-83
2022/10/14 12:45:13;;;;;;;3.22;1.73;;;17.00;99.90;;;;;;5082494;28;20445;-83
2022/10/14 12:47:39;;;;;;;1.58;1.48;;;17.10;99.90;;;;;;5082996;28;20032;-82
2022/10/14 12:50:35;;;;;;;4.07;2.50;;;17.00;99.90;;;;;;5076590;28;20744;-83
2022/10/14 12:53:05;;;;;;;2.45;1.80;;;17.00;99.90;;;;;;5074117;28;20436;-83
2022/10/14 12:55:46;;;;;;;2.28;2.00;;;17.00;99.90;;;;;;5073406;28;20032;-83
2022/10/14 12:58:22;;;;;;;2.88;2.20;;;17.10;99.90;;;;;;5083997;28;20123;-83
2022/10/14 13:00:53;;;;;;;3.13;1.70;;;17.20;99.90;;;;;;5089127;28;20495;-83
2022/10/14 13:03:27;;;;;;;4.43;1.88;;;17.20;99.90;;;;;;5084573;28;20040;-82
2022/10/14 13:06:13;;;;;;;2.42;1.73;;;17.30;99.90;;;;;;5079924;28;20077;-82
2022/10/14 13:08:39;;;;;;;1.70;1.60;;;17.30;99.90;;;;;;5075874;28;20099;-82
2022/10/14 13:11:10;;;;;;;2.05;1.63;;;17.30;99.90;;;;;;5085179;28;20103;-83
2022/10/14 13:13:46;;;;;;;3.17;2.20;;;17.20;99.90;;;;;;5084562;28;20444;-83
2022/10/14 13:16:24;;;;;;;1.77;1.60;;;17.20;99.90;;;;;;5087065;28;20028;-82